sensor_id;sensor_type;location;lat;lon;timestamp;pressure;altitude;pressure_sealevel;temperature;humidity
74578;BME280;63173;49.086;33.418;2023-05-07T00:00:06;101319.88;;;5.81;58.33
74578;BME280;63173;49.086;33.418;2023-05-07T00:02:33;101323.78;;;5.96;59.29
74578;BME280;63173;49.086;33.418;2023-05-07T00:04:58;101317.31;;;5.86;58.43
74578;BME280;63173;49.086;33.418;2023-05-07T00:07:24;101324.38;;;5.98;59.24
74578;BME280;63173;49.086;33.418;2023-05-07T00:09:49;101317.25;;;5.92;58.14
74578;BME280;63173;49.086;33.418;2023-05-07T00:12:15;101320.84;;;5.86;59.27
74578;BME280;63173;49.086;33.418;2023-05-07T00:16:55;101322.97;;;5.54;59.10
74578;BME280;63173;49.086;33.418;2023-05-07T00:19:21;101318.31;;;5.43;60.77
74578;BME280;63173;49.086;33.418;2023-05-07T00:21:46;101326.97;;;5.63;60.74
74578;BME280;63173;49.086;33.418;2023-05-07T00:24:12;101329.75;;;5.57;59.04
74578;BME280;63173;49.086;33.418;2023-05-07T00:26:37;101330.06;;;5.49;60.12
74578;BME280;63173;49.086;33.418;2023-05-07T00:29:03;101334.03;;;5.46;61.59
74578;BME280;63173;49.086;33.418;2023-05-07T00:31:28;101343.31;;;5.50;59.51
74578;BME280;63173;49.086;33.418;2023-05-07T00:33:53;101347.09;;;5.31;60.58
74578;BME280;63173;49.086;33.418;2023-05-07T00:36:19;101344.19;;;5.15;61.92
74578;BME280;63173;49.086;33.418;2023-05-07T00:38:44;101358.41;;;5.22;61.88
74578;BME280;63173;49.086;33.418;2023-05-07T00:41:10;101356.22;;;5.30;62.05
74578;BME280;63173;49.086;33.418;2023-05-07T00:43:35;101350.09;;;5.53;61.12
74578;BME280;63173;49.086;33.418;2023-05-07T00:46:01;101353.88;;;5.52;60.23
74578;BME280;63173;49.086;33.418;2023-05-07T00:48:27;101352.84;;;5.17;62.10
74578;BME280;63173;49.086;33.418;2023-05-07T00:50:53;101345.19;;;5.32;61.00
74578;BME280;63173;49.086;33.418;2023-05-07T00:53:19;101349.88;;;5.07;62.94
74578;BME280;63173;49.086;33.418;2023-05-07T00:55:44;101356.22;;;5.30;62.25
74578;BME280;63173;49.086;33.418;2023-05-07T00:58:10;101356.13;;;5.37;62.14
74578;BME280;63173;49.086;33.418;2023-05-07T01:00:35;101351.19;;;5.34;61.65
74578;BME280;63173;49.086;33.418;2023-05-07T01:03:01;101342.75;;;5.30;61.19
74578;BME280;63173;49.086;33.418;2023-05-07T01:05:27;101347.91;;;5.32;62.24
74578;BME280;63173;49.086;33.418;2023-05-07T01:07:54;101355.19;;;5.13;62.44
74578;BME280;63173;49.086;33.418;2023-05-07T01:15:04;101352.13;;;5.10;62.96
74578;BME280;63173;49.086;33.418;2023-05-07T01:17:36;101352.13;;;5.10;63.08
74578;BME280;63173;49.086;33.418;2023-05-07T01:20:03;101353.19;;;5.09;62.89
74578;BME280;63173;49.086;33.418;2023-05-07T01:22:31;101354.78;;;4.73;62.70
74578;BME280;63173;49.086;33.418;2023-05-07T01:24:58;101356.03;;;4.96;63.61
74578;BME280;63173;49.086;33.418;2023-05-07T01:27:25;101350.31;;;4.86;62.81
74578;BME280;63173;49.086;33.418;2023-05-07T01:30:20;101345.91;;;4.73;63.24
74578;BME280;63173;49.086;33.418;2023-05-07T01:33:06;101347.75;;;4.54;64.14
74578;BME280;63173;49.086;33.418;2023-05-07T01:35:37;101344.03;;;4.73;64.08
74578;BME280;63173;49.086;33.418;2023-05-07T01:38:03;101347.03;;;4.65;63.56
74578;BME280;63173;49.086;33.418;2023-05-07T01:40:31;101342.53;;;4.77;64.39
74578;BME280;63173;49.086;33.418;2023-05-07T01:42:56;101340.72;;;4.71;63.93
74578;BME280;63173;49.086;33.418;2023-05-07T01:45:22;101346.47;;;4.57;64.17
74578;BME280;63173;49.086;33.418;2023-05-07T01:47:49;101358.38;;;4.67;65.24
74578;BME280;63173;49.086;33.418;2023-05-07T01:50:16;101357.72;;;4.72;64.10
74578;BME280;63173;49.086;33.418;2023-05-07T01:52:43;101359.56;;;4.71;64.29
74578;BME280;63173;49.086;33.418;2023-05-07T01:55:09;101363.56;;;4.69;64.17
74578;BME280;63173;49.086;33.418;2023-05-07T01:59:10;101354.50;;;4.63;64.98
74578;BME280;63173;49.086;33.418;2023-05-07T02:01:35;101362.03;;;4.30;66.24
74578;BME280;63173;49.086;33.418;2023-05-07T02:12:55;101357.50;;;4.31;65.73
74578;BME280;63173;49.086;33.418;2023-05-07T02:15:20;101369.22;;;4.12;66.29
74578;BME280;63173;49.086;33.418;2023-05-07T02:18:06;101366.16;;;4.33;65.76
74578;BME280;63173;49.086;33.418;2023-05-07T02:20:32;101362.75;;;4.44;65.41
74578;BME280;63173;49.086;33.418;2023-05-07T02:22:57;101361.06;;;4.25;65.35
74578;BME280;63173;49.086;33.418;2023-05-07T02:27:27;101368.34;;;4.42;65.15
74578;BME280;63173;49.086;33.418;2023-05-07T02:39:28;101361.06;;;4.25;66.29
74578;BME280;63173;49.086;33.418;2023-05-07T02:47:47;101357.53;;;4.24;65.94
74578;BME280;63173;49.086;33.418;2023-05-07T02:50:13;101363.72;;;4.49;65.80
74578;BME280;63173;49.086;33.418;2023-05-07T02:52:38;101367.19;;;4.56;63.89
74578;BME280;63173;49.086;33.418;2023-05-07T02:55:04;101368.47;;;4.54;64.33
74578;BME280;63173;49.086;33.418;2023-05-07T02:57:30;101367.78;;;4.58;63.65
74578;BME280;63173;49.086;33.418;2023-05-07T02:59:57;101370.19;;;4.66;63.78
74578;BME280;63173;49.086;33.418;2023-05-07T03:02:23;101363.72;;;4.49;65.00
74578;BME280;63173;49.086;33.418;2023-05-07T03:04:48;101373.34;;;4.63;63.28
74578;BME280;63173;49.086;33.418;2023-05-07T03:07:14;101374.50;;;4.67;63.39
74578;BME280;63173;49.086;33.418;2023-05-07T03:09:39;101368.94;;;4.87;62.88
74578;BME280;63173;49.086;33.418;2023-05-07T03:12:05;101377.34;;;4.97;62.58
74578;BME280;63173;49.086;33.418;2023-05-07T03:14:30;101370.72;;;4.75;63.73
74578;BME280;63173;49.086;33.418;2023-05-07T03:16:56;101372.00;;;4.91;64.26
74578;BME280;63173;49.086;33.418;2023-05-07T03:19:21;101378.22;;;4.91;62.64
74578;BME280;63173;49.086;33.418;2023-05-07T03:21:46;101378.72;;;5.00;63.61
74578;BME280;63173;49.086;33.418;2023-05-07T03:24:12;101382.63;;;5.04;62.85
74578;BME280;63173;49.086;33.418;2023-05-07T03:26:37;101377.09;;;4.99;62.96
74578;BME280;63173;49.086;33.418;2023-05-07T03:29:03;101388.78;;;5.11;62.65
74578;BME280;63173;49.086;33.418;2023-05-07T03:31:28;101386.00;;;5.35;61.71
74578;BME280;63173;49.086;33.418;2023-05-07T03:33:55;101393.66;;;5.20;62.62
74578;BME280;63173;49.086;33.418;2023-05-07T03:36:21;101395.66;;;5.25;63.47
74578;BME280;63173;49.086;33.418;2023-05-07T03:38:47;101400.66;;;5.21;61.94
74578;BME280;63173;49.086;33.418;2023-05-07T03:41:13;101403.50;;;5.26;61.72
74578;BME280;63173;49.086;33.418;2023-05-07T03:43:38;101405.47;;;5.37;61.39
74578;BME280;63173;49.086;33.418;2023-05-07T03:46:04;101411.50;;;5.51;60.90
74578;BME280;63173;49.086;33.418;2023-05-07T03:48:29;101408.72;;;5.57;61.51
74578;BME280;63173;49.086;33.418;2023-05-07T03:50:56;101402.44;;;5.63;60.64
74578;BME280;63173;49.086;33.418;2023-05-07T03:53:22;101402.00;;;5.78;60.06
74578;BME280;63173;49.086;33.418;2023-05-07T03:55:47;101401.97;;;5.85;60.28
74578;BME280;63173;49.086;33.418;2023-05-07T03:58:13;101400.31;;;5.84;59.83
74578;BME280;63173;49.086;33.418;2023-05-07T04:00:38;101402.06;;;5.60;61.58
74578;BME280;63173;49.086;33.418;2023-05-07T04:03:05;101393.94;;;5.78;60.83
74578;BME280;63173;49.086;33.418;2023-05-07T04:05:31;101401.34;;;6.12;59.38
74578;BME280;63173;49.086;33.418;2023-05-07T04:08:00;101401.06;;;6.32;57.71
74578;BME280;63173;49.086;33.418;2023-05-07T04:10:26;101413.56;;;6.15;57.77
74578;BME280;63173;49.086;33.418;2023-05-07T04:12:51;101404.34;;;6.45;57.96
74578;BME280;63173;49.086;33.418;2023-05-07T04:15:17;101409.63;;;6.40;57.38
74578;BME280;63173;49.086;33.418;2023-05-07T04:17:42;101410.19;;;6.42;56.75
74578;BME280;63173;49.086;33.418;2023-05-07T04:20:16;101409.53;;;6.58;57.18
74578;BME280;63173;49.086;33.418;2023-05-07T04:22:42;101414.91;;;6.70;55.99
74578;BME280;63173;49.086;33.418;2023-05-07T04:25:08;101409.75;;;6.92;55.91
74578;BME280;63173;49.086;33.418;2023-05-07T04:27:35;101418.56;;;7.10;54.33
74578;BME280;63173;49.086;33.418;2023-05-07T04:30:01;101418.22;;;6.84;53.78
74578;BME280;63173;49.086;33.418;2023-05-07T04:32:28;101415.41;;;7.13;53.32
74578;BME280;63173;49.086;33.418;2023-05-07T04:34:54;101422.03;;;7.45;53.26
74578;BME280;63173;49.086;33.418;2023-05-07T04:37:20;101416.63;;;7.45;52.42
74578;BME280;63173;49.086;33.418;2023-05-07T04:39:46;101419.28;;;7.57;52.07
74578;BME280;63173;49.086;33.418;2023-05-07T04:42:16;101421.56;;;7.37;51.92
74578;BME280;63173;49.086;33.418;2023-05-07T04:44:43;101425.13;;;7.66;51.21
74578;BME280;63173;49.086;33.418;2023-05-07T04:47:08;101421.09;;;7.80;50.71
74578;BME280;63173;49.086;33.418;2023-05-07T04:49:34;101413.69;;;7.47;52.04
74578;BME280;63173;49.086;33.418;2023-05-07T04:51:59;101419.19;;;7.80;51.22
74578;BME280;63173;49.086;33.418;2023-05-07T04:54:25;101418.75;;;7.83;50.63
74578;BME280;63173;49.086;33.418;2023-05-07T04:56:51;101420.03;;;7.81;50.92
74578;BME280;63173;49.086;33.418;2023-05-07T04:59:17;101418.53;;;8.01;51.16
74578;BME280;63173;49.086;33.418;2023-05-07T05:01:42;101411.78;;;7.87;50.57
74578;BME280;63173;49.086;33.418;2023-05-07T05:04:08;101413.69;;;8.31;49.73
74578;BME280;63173;49.086;33.418;2023-05-07T05:06:33;101419.84;;;8.60;49.18
74578;BME280;63173;49.086;33.418;2023-05-07T05:08:59;101412.28;;;8.29;49.69
74578;BME280;63173;49.086;33.418;2023-05-07T05:11:24;101414.19;;;8.45;48.31
74578;BME280;63173;49.086;33.418;2023-05-07T05:13:50;101414.03;;;8.51;47.86
74578;BME280;63173;49.086;33.418;2023-05-07T05:16:15;101410.06;;;8.42;47.77
74578;BME280;63173;49.086;33.418;2023-05-07T05:18:41;101409.03;;;8.60;47.49
74578;BME280;63173;49.086;33.418;2023-05-07T05:21:06;101410.00;;;8.71;46.80
74578;BME280;63173;49.086;33.418;2023-05-07T05:23:32;101409.50;;;8.90;46.13
74578;BME280;63173;49.086;33.418;2023-05-07T05:25:57;101408.66;;;8.90;47.00
74578;BME280;63173;49.086;33.418;2023-05-07T05:28:23;101408.19;;;9.14;45.51
74578;BME280;63173;49.086;33.418;2023-05-07T05:30:49;101409.53;;;9.33;46.46
74578;BME280;63173;49.086;33.418;2023-05-07T05:33:14;101414.84;;;9.23;45.66
74578;BME280;63173;49.086;33.418;2023-05-07T05:35:41;101413.34;;;9.32;46.29
74578;BME280;63173;49.086;33.418;2023-05-07T05:38:06;101406.34;;;9.36;46.10
74578;BME280;63173;49.086;33.418;2023-05-07T05:40:32;101413.97;;;9.39;45.98
74578;BME280;63173;49.086;33.418;2023-05-07T05:42:58;101419.59;;;9.55;46.37
74578;BME280;63173;49.086;33.418;2023-05-07T05:45:24;101420.09;;;9.52;45.27
74578;BME280;63173;49.086;33.418;2023-05-07T05:47:49;101415.66;;;9.67;44.42
74578;BME280;63173;49.086;33.418;2023-05-07T05:50:14;101419.66;;;10.08;43.60
74578;BME280;63173;49.086;33.418;2023-05-07T05:52:40;101411.19;;;10.04;43.71
74578;BME280;63173;49.086;33.418;2023-05-07T05:55:06;101411.97;;;10.00;42.63
74578;BME280;63173;49.086;33.418;2023-05-07T05:57:32;101404.78;;;10.10;39.19
74578;BME280;63173;49.086;33.418;2023-05-07T05:59:57;101396.44;;;9.69;40.31
74578;BME280;63173;49.086;33.418;2023-05-07T06:02:23;101406.34;;;10.06;39.34
74578;BME280;63173;49.086;33.418;2023-05-07T06:04:48;101397.50;;;10.16;40.09
74578;BME280;63173;49.086;33.418;2023-05-07T06:07:14;101390.53;;;10.25;37.64
74578;BME280;63173;49.086;33.418;2023-05-07T06:09:39;101392.19;;;10.04;37.12
74578;BME280;63173;49.086;33.418;2023-05-07T06:12:05;101389.81;;;10.39;37.31
74578;BME280;63173;49.086;33.418;2023-05-07T06:14:30;101396.25;;;10.28;37.05
74578;BME280;63173;49.086;33.418;2023-05-07T06:16:56;101380.69;;;10.19;36.96
74578;BME280;63173;49.086;33.418;2023-05-07T06:19:22;101378.84;;;10.24;34.61
74578;BME280;63173;49.086;33.418;2023-05-07T06:21:49;101386.56;;;10.11;34.98
74578;BME280;63173;49.086;33.418;2023-05-07T06:24:15;101381.22;;;10.48;34.10
74578;BME280;63173;49.086;33.418;2023-05-07T06:26:40;101384.34;;;10.29;35.91
74578;BME280;63173;49.086;33.418;2023-05-07T06:29:06;101386.09;;;10.46;35.59
74578;BME280;63173;49.086;33.418;2023-05-07T06:31:31;101378.16;;;10.76;33.95
74578;BME280;63173;49.086;33.418;2023-05-07T06:33:57;101386.19;;;10.97;34.14
74578;BME280;63173;49.086;33.418;2023-05-07T06:36:24;101385.16;;;11.08;33.71
74578;BME280;63173;49.086;33.418;2023-05-07T06:38:49;101380.94;;;11.32;33.37
74578;BME280;63173;49.086;33.418;2023-05-07T06:41:15;101376.66;;;10.95;34.72
74578;BME280;63173;49.086;33.418;2023-05-07T06:43:40;101386.34;;;11.27;32.96
74578;BME280;63173;49.086;33.418;2023-05-07T06:46:05;101389.13;;;11.43;32.80
74578;BME280;63173;49.086;33.418;2023-05-07T06:48:31;101382.03;;;11.36;34.06
74578;BME280;63173;49.086;33.418;2023-05-07T06:50:56;101377.56;;;11.77;33.35
74578;BME280;63173;49.086;33.418;2023-05-07T06:53:23;101384.66;;;11.78;33.27
74578;BME280;63173;49.086;33.418;2023-05-07T06:55:49;101375.41;;;11.12;33.61
74578;BME280;63173;49.086;33.418;2023-05-07T06:58:14;101370.03;;;11.27;32.09
74578;BME280;63173;49.086;33.418;2023-05-07T07:00:39;101376.66;;;11.52;33.46
74578;BME280;63173;49.086;33.418;2023-05-07T07:03:06;101369.09;;;11.64;31.98
74578;BME280;63173;49.086;33.418;2023-05-07T07:05:31;101359.06;;;11.79;31.66
74578;BME280;63173;49.086;33.418;2023-05-07T07:07:57;101359.34;;;11.83;32.50
74578;BME280;63173;49.086;33.418;2023-05-07T07:10:22;101357.97;;;11.70;31.53
74578;BME280;63173;49.086;33.418;2023-05-07T07:12:49;101361.53;;;11.91;31.49
74578;BME280;63173;49.086;33.418;2023-05-07T07:15:15;101359.66;;;11.86;32.42
74578;BME280;63173;49.086;33.418;2023-05-07T07:17:40;101350.69;;;12.31;32.00
74578;BME280;63173;49.086;33.418;2023-05-07T07:20:06;101364.59;;;12.35;30.99
74578;BME280;63173;49.086;33.418;2023-05-07T07:22:32;101361.28;;;12.07;31.29
74578;BME280;63173;49.086;33.418;2023-05-07T07:24:58;101365.31;;;11.70;31.56
74578;BME280;63173;49.086;33.418;2023-05-07T07:27:23;101351.22;;;11.98;31.44
74578;BME280;63173;49.086;33.418;2023-05-07T07:29:49;101355.31;;;12.25;31.21
74578;BME280;63173;49.086;33.418;2023-05-07T07:32:14;101351.50;;;12.11;31.46
74578;BME280;63173;49.086;33.418;2023-05-07T07:34:40;101353.13;;;12.32;31.04
74578;BME280;63173;49.086;33.418;2023-05-07T07:37:05;101348.22;;;12.60;30.97
74578;BME280;63173;49.086;33.418;2023-05-07T07:39:34;101341.09;;;12.84;30.73
74578;BME280;63173;49.086;33.418;2023-05-07T07:42:00;101338.28;;;13.24;30.32
74578;BME280;63173;49.086;33.418;2023-05-07T07:44:27;101332.66;;;13.54;30.37
74578;BME280;63173;49.086;33.418;2023-05-07T07:46:53;101341.88;;;12.99;30.78
74578;BME280;63173;49.086;33.418;2023-05-07T07:49:18;101338.41;;;12.59;30.49
74578;BME280;63173;49.086;33.418;2023-05-07T07:51:44;101332.38;;;12.87;29.50
74578;BME280;63173;49.086;33.418;2023-05-07T07:54:09;101324.66;;;13.19;29.75
74578;BME280;63173;49.086;33.418;2023-05-07T07:56:35;101328.50;;;13.08;29.71
74578;BME280;63173;49.086;33.418;2023-05-07T07:59:01;101322.22;;;13.02;29.92
74578;BME280;63173;49.086;33.418;2023-05-07T08:01:27;101322.72;;;13.25;29.96
74578;BME280;63173;49.086;33.418;2023-05-07T08:03:53;101329.63;;;13.61;29.89
74578;BME280;63173;49.086;33.418;2023-05-07T08:06:19;101328.97;;;13.25;30.70
74578;BME280;63173;49.086;33.418;2023-05-07T08:08:44;101329.97;;;13.44;30.53
74578;BME280;63173;49.086;33.418;2023-05-07T08:11:10;101330.16;;;13.09;30.31
74578;BME280;63173;49.086;33.418;2023-05-07T08:13:36;101322.50;;;13.01;31.07
74578;BME280;63173;49.086;33.418;2023-05-07T08:16:02;101321.50;;;13.46;30.21
74578;BME280;63173;49.086;33.418;2023-05-07T08:18:27;101325.44;;;14.12;29.92
74578;BME280;63173;49.086;33.418;2023-05-07T08:20:54;101321.34;;;13.76;29.85
74578;BME280;63173;49.086;33.418;2023-05-07T08:23:20;101313.81;;;14.35;30.36
74578;BME280;63173;49.086;33.418;2023-05-07T08:25:45;101305.34;;;13.59;29.82
74578;BME280;63173;49.086;33.418;2023-05-07T08:28:11;101321.53;;;14.28;29.41
74578;BME280;63173;49.086;33.418;2023-05-07T08:30:36;101303.63;;;14.69;27.77
74578;BME280;63173;49.086;33.418;2023-05-07T08:33:02;101301.09;;;15.01;27.54
74578;BME280;63173;49.086;33.418;2023-05-07T08:35:27;101299.97;;;14.79;27.48
74578;BME280;63173;49.086;33.418;2023-05-07T08:37:53;101288.09;;;14.65;27.80
74578;BME280;63173;49.086;33.418;2023-05-07T08:40:18;101296.19;;;14.75;27.84
74578;BME280;63173;49.086;33.418;2023-05-07T08:42:44;101293.97;;;14.19;28.67
74578;BME280;63173;49.086;33.418;2023-05-07T08:45:10;101289.03;;;13.88;28.20
74578;BME280;63173;49.086;33.418;2023-05-07T08:47:58;101288.16;;;13.97;28.51
74578;BME280;63173;49.086;33.418;2023-05-07T08:50:24;101281.19;;;14.15;28.85
74578;BME280;63173;49.086;33.418;2023-05-07T08:52:49;101278.59;;;13.95;29.30
74578;BME280;63173;49.086;33.418;2023-05-07T08:55:15;101283.44;;;14.65;27.86
74578;BME280;63173;49.086;33.418;2023-05-07T08:57:41;101275.78;;;14.91;27.36
74578;BME280;63173;49.086;33.418;2023-05-07T09:00:07;101279.66;;;14.33;27.94
74578;BME280;63173;49.086;33.418;2023-05-07T09:02:35;101279.84;;;14.93;26.97
74578;BME280;63173;49.086;33.418;2023-05-07T09:05:00;101286.66;;;15.20;27.29
74578;BME280;63173;49.086;33.418;2023-05-07T09:07:26;101284.16;;;14.76;26.14
74578;BME280;63173;49.086;33.418;2023-05-07T09:09:52;101288.91;;;14.65;27.55
74578;BME280;63173;49.086;33.418;2023-05-07T09:12:18;101278.91;;;15.03;26.41
74578;BME280;63173;49.086;33.418;2023-05-07T09:14:44;101278.38;;;14.54;26.90
74578;BME280;63173;49.086;33.418;2023-05-07T09:17:11;101289.22;;;15.53;26.41
74578;BME280;63173;49.086;33.418;2023-05-07T09:19:36;101283.88;;;15.80;25.59
74578;BME280;63173;49.086;33.418;2023-05-07T09:22:12;101280.63;;;15.78;26.01
74578;BME280;63173;49.086;33.418;2023-05-07T09:24:38;101286.19;;;15.55;25.72
74578;BME280;63173;49.086;33.418;2023-05-07T09:27:04;101283.44;;;15.73;26.00
74578;BME280;63173;49.086;33.418;2023-05-07T09:29:30;101280.38;;;15.93;26.23
74578;BME280;63173;49.086;33.418;2023-05-07T09:32:09;101284.78;;;16.59;24.09
74578;BME280;63173;49.086;33.418;2023-05-07T09:34:35;101284.19;;;16.43;25.61
74578;BME280;63173;49.086;33.418;2023-05-07T09:37:02;101280.50;;;16.66;26.32
74578;BME280;63173;49.086;33.418;2023-05-07T09:39:46;101284.72;;;16.45;25.68
74578;BME280;63173;49.086;33.418;2023-05-07T09:42:12;101272.16;;;15.93;24.59
74578;BME280;63173;49.086;33.418;2023-05-07T09:44:40;101274.25;;;15.27;26.43
74578;BME280;63173;49.086;33.418;2023-05-07T09:47:06;101275.63;;;15.25;25.45
74578;BME280;63173;49.086;33.418;2023-05-07T09:49:35;101277.84;;;15.23;26.47
74578;BME280;63173;49.086;33.418;2023-05-07T09:52:03;101279.09;;;14.88;27.47
74578;BME280;63173;49.086;33.418;2023-05-07T09:54:31;101270.56;;;15.13;27.47
74578;BME280;63173;49.086;33.418;2023-05-07T09:56:59;101271.53;;;15.46;27.41
74578;BME280;63173;49.086;33.418;2023-05-07T09:59:28;101275.88;;;16.35;25.76
74578;BME280;63173;49.086;33.418;2023-05-07T10:01:57;101264.13;;;15.83;26.11
74578;BME280;63173;49.086;33.418;2023-05-07T10:04:25;101267.28;;;16.55;25.18
74578;BME280;63173;49.086;33.418;2023-05-07T10:06:50;101260.97;;;16.41;25.43
74578;BME280;63173;49.086;33.418;2023-05-07T10:09:16;101263.94;;;16.71;24.54
74578;BME280;63173;49.086;33.418;2023-05-07T10:11:42;101267.09;;;16.92;24.92
74578;BME280;63173;49.086;33.418;2023-05-07T10:14:09;101269.84;;;17.68;23.70
74578;BME280;63173;49.086;33.418;2023-05-07T10:16:36;101274.94;;;17.75;24.06
74578;BME280;63173;49.086;33.418;2023-05-07T10:19:06;101269.34;;;16.76;24.00
74578;BME280;63173;49.086;33.418;2023-05-07T10:21:40;101266.31;;;17.05;24.31
74578;BME280;63173;49.086;33.418;2023-05-07T10:24:14;101258.13;;;17.76;23.65
74578;BME280;63173;49.086;33.418;2023-05-07T10:26:44;101253.00;;;17.61;23.98
74578;BME280;63173;49.086;33.418;2023-05-07T10:32:39;101258.84;;;19.05;22.58
74578;BME280;63173;49.086;33.418;2023-05-07T10:35:19;101261.00;;;19.16;22.21
74578;BME280;63173;49.086;33.418;2023-05-07T10:37:46;101248.53;;;17.38;24.89
74578;BME280;63173;49.086;33.418;2023-05-07T10:40:12;101256.84;;;17.47;25.00
74578;BME280;63173;49.086;33.418;2023-05-07T10:42:38;101249.56;;;18.00;24.83
74578;BME280;63173;49.086;33.418;2023-05-07T10:45:15;101258.16;;;16.59;24.61
74578;BME280;63173;49.086;33.418;2023-05-07T10:50:29;101256.84;;;16.84;26.04
74578;BME280;63173;49.086;33.418;2023-05-07T10:55:47;101249.16;;;17.84;22.59
74578;BME280;63173;49.086;33.418;2023-05-07T10:58:27;101244.75;;;17.83;22.75
74578;BME280;63173;49.086;33.418;2023-05-07T11:00:57;101250.25;;;18.06;23.06
74578;BME280;63173;49.086;33.418;2023-05-07T11:03:24;101246.34;;;17.13;24.21
74578;BME280;63173;49.086;33.418;2023-05-07T11:06:15;101247.31;;;17.58;23.36
74578;BME280;63173;49.086;33.418;2023-05-07T11:11:18;101239.72;;;18.52;23.02
74578;BME280;63173;49.086;33.418;2023-05-07T11:13:46;101237.59;;;18.88;22.34
74578;BME280;63173;49.086;33.418;2023-05-07T11:16:21;101228.31;;;18.14;22.81
74578;BME280;63173;49.086;33.418;2023-05-07T11:18:50;101222.50;;;18.77;22.62
74578;BME280;63173;49.086;33.418;2023-05-07T11:21:40;101222.59;;;19.11;22.16
74578;BME280;63173;49.086;33.418;2023-05-07T11:24:08;101224.44;;;19.41;22.44
74578;BME280;63173;49.086;33.418;2023-05-07T11:26:46;101209.97;;;19.27;22.53
74578;BME280;63173;49.086;33.418;2023-05-07T11:29:14;101200.38;;;18.99;22.92
74578;BME280;63173;49.086;33.418;2023-05-07T11:31:40;101199.91;;;19.14;22.00
74578;BME280;63173;49.086;33.418;2023-05-07T11:34:06;101200.38;;;18.99;21.78
74578;BME280;63173;49.086;33.418;2023-05-07T11:36:32;101200.19;;;18.17;22.19
74578;BME280;63173;49.086;33.418;2023-05-07T11:38:58;101202.34;;;19.07;21.67
74578;BME280;63173;49.086;33.418;2023-05-07T11:41:34;101197.66;;;20.86;20.33
74578;BME280;63173;49.086;33.418;2023-05-07T11:44:01;101197.56;;;18.91;21.99
74578;BME280;63173;49.086;33.418;2023-05-07T11:46:27;101191.75;;;18.84;21.52
74578;BME280;63173;49.086;33.418;2023-05-07T11:48:54;101191.16;;;18.25;22.39
74578;BME280;63173;49.086;33.418;2023-05-07T11:51:21;101193.44;;;19.87;21.32
74578;BME280;63173;49.086;33.418;2023-05-07T11:53:47;101194.91;;;19.85;21.17
74578;BME280;63173;49.086;33.418;2023-05-07T11:56:15;101183.16;;;20.68;19.96
74578;BME280;63173;49.086;33.418;2023-05-07T11:58:42;101190.19;;;20.02;20.09
74578;BME280;63173;49.086;33.418;2023-05-07T12:01:08;101192.13;;;19.25;21.04
74578;BME280;63173;49.086;33.418;2023-05-07T12:03:35;101192.16;;;21.15;19.87
74578;BME280;63173;49.086;33.418;2023-05-07T12:06:02;101184.63;;;20.28;20.17
74578;BME280;63173;49.086;33.418;2023-05-07T12:08:30;101191.53;;;21.09;20.31
74578;BME280;63173;49.086;33.418;2023-05-07T12:10:55;101179.50;;;20.76;20.34
74578;BME280;63173;49.086;33.418;2023-05-07T12:13:23;101183.78;;;20.65;20.89
74578;BME280;63173;49.086;33.418;2023-05-07T12:15:53;101178.06;;;20.49;20.46
74578;BME280;63173;49.086;33.418;2023-05-07T12:18:19;101185.22;;;19.53;21.01
74578;BME280;63173;49.086;33.418;2023-05-07T12:20:46;101181.00;;;19.55;21.16
74578;BME280;63173;49.086;33.418;2023-05-07T12:23:11;101180.13;;;19.98;21.98
74578;BME280;63173;49.086;33.418;2023-05-07T12:25:38;101176.16;;;19.52;22.06
74578;BME280;63173;49.086;33.418;2023-05-07T12:28:05;101170.34;;;20.26;21.50
74578;BME280;63173;49.086;33.418;2023-05-07T12:30:32;101165.47;;;20.90;20.58
74578;BME280;63173;49.086;33.418;2023-05-07T12:33:01;101166.97;;;18.84;21.46
74578;BME280;63173;49.086;33.418;2023-05-07T12:35:31;101169.66;;;19.65;21.68
74578;BME280;63173;49.086;33.418;2023-05-07T12:37:57;101168.94;;;19.00;22.68
74578;BME280;63173;49.086;33.418;2023-05-07T12:40:37;101166.78;;;18.71;22.67
74578;BME280;63173;49.086;33.418;2023-05-07T12:43:03;101156.44;;;18.38;23.60
74578;BME280;63173;49.086;33.418;2023-05-07T12:45:29;101167.19;;;19.30;22.61
74578;BME280;63173;49.086;33.418;2023-05-07T12:47:54;101158.59;;;20.96;20.97
74578;BME280;63173;49.086;33.418;2023-05-07T12:50:20;101150.97;;;21.75;19.34
74578;BME280;63173;49.086;33.418;2023-05-07T12:52:49;101146.13;;;21.72;19.35
74578;BME280;63173;49.086;33.418;2023-05-07T12:55:15;101144.50;;;21.38;20.45
74578;BME280;63173;49.086;33.418;2023-05-07T12:57:42;101147.94;;;20.27;20.60
74578;BME280;63173;49.086;33.418;2023-05-07T13:00:09;101142.13;;;20.20;21.37
74578;BME280;63173;49.086;33.418;2023-05-07T13:02:37;101148.97;;;19.97;21.71
74578;BME280;63173;49.086;33.418;2023-05-07T13:05:04;101147.91;;;19.73;21.45
74578;BME280;63173;49.086;33.418;2023-05-07T13:07:29;101139.34;;;20.12;21.44
74578;BME280;63173;49.086;33.418;2023-05-07T13:09:54;101142.34;;;19.90;21.68
74578;BME280;63173;49.086;33.418;2023-05-07T13:12:20;101141.00;;;20.04;21.95
74578;BME280;63173;49.086;33.418;2023-05-07T13:14:45;101148.56;;;19.61;21.36
74578;BME280;63173;49.086;33.418;2023-05-07T13:17:11;101144.22;;;21.11;21.15
74578;BME280;63173;49.086;33.418;2023-05-07T13:19:36;101134.72;;;21.20;19.79
74578;BME280;63173;49.086;33.418;2023-05-07T13:22:03;101138.69;;;19.34;21.12
74578;BME280;63173;49.086;33.418;2023-05-07T13:24:28;101143.03;;;19.78;20.92
74578;BME280;63173;49.086;33.418;2023-05-07T13:26:54;101149.22;;;19.49;21.58
74578;BME280;63173;49.086;33.418;2023-05-07T13:29:20;101136.44;;;21.66;20.10